sensor_id;sensor_type;location;lat;lon;timestamp;P1;durP1;ratioP1;P2;durP2;ratioP2
27303;SDS011;14791;52.392;13.092;2022-11-06T00:02:14;5.30;;;4.60;;
27303;SDS011;14791;52.392;13.092;2022-11-06T00:04:43;7.30;;;5.53;;
27303;SDS011;14791;52.392;13.092;2022-11-06T00:07:12;4.80;;;4.40;;
27303;SDS011;14791;52.392;13.092;2022-11-06T00:09:40;4.67;;;4.27;;
27303;SDS011;14791;52.392;13.092;2022-11-06T00:12:09;4.67;;;4.13;;
27303;SDS011;14791;52.392;13.092;2022-11-06T00:14:38;4.30;;;3.90;;
27303;SDS011;14791;52.392;13.092;2022-11-06T00:17:07;4.70;;;4.13;;
27303;SDS011;14791;52.392;13.092;2022-11-06T00:19:36;5.10;;;4.70;;
27303;SDS011;14791;52.392;13.092;2022-11-06T00:22:05;5.67;;;4.37;;
27303;SDS011;14791;52.392;13.092;2022-11-06T00:24:34;4.90;;;4.57;;
27303;SDS011;14791;52.392;13.092;2022-11-06T00:27:03;5.27;;;4.00;;
27303;SDS011;14791;52.392;13.092;2022-11-06T00:29:32;4.83;;;3.97;;
27303;SDS011;14791;52.392;13.092;2022-11-06T00:32:01;3.77;;;3.57;;
27303;SDS011;14791;52.392;13.092;2022-11-06T00:34:30;5.70;;;4.70;;
27303;SDS011;14791;52.392;13.092;2022-11-06T00:36:59;5.53;;;5.13;;
27303;SDS011;14791;52.392;13.092;2022-11-06T00:39:28;4.37;;;3.97;;
27303;SDS011;14791;52.392;13.092;2022-11-06T00:41:56;3.47;;;3.27;;
27303;SDS011;14791;52.392;13.092;2022-11-06T00:44:25;4.50;;;4.10;;
27303;SDS011;14791;52.392;13.092;2022-11-06T00:46:54;3.97;;;3.67;;
27303;SDS011;14791;52.392;13.092;2022-11-06T00:49:23;3.03;;;2.83;;
27303;SDS011;14791;52.392;13.092;2022-11-06T00:51:52;4.97;;;4.00;;
27303;SDS011;14791;52.392;13.092;2022-11-06T00:54:21;3.90;;;3.60;;
27303;SDS011;14791;52.392;13.092;2022-11-06T00:56:50;5.17;;;3.93;;
27303;SDS011;14791;52.392;13.092;2022-11-06T00:59:19;4.30;;;3.90;;
27303;SDS011;14791;52.392;13.092;2022-11-06T01:01:48;3.03;;;2.93;;
27303;SDS011;14791;52.392;13.092;2022-11-06T01:04:21;4.10;;;3.77;;
27303;SDS011;14791;52.392;13.092;2022-11-06T01:06:51;3.13;;;3.03;;
27303;SDS011;14791;52.392;13.092;2022-11-06T01:09:24;3.53;;;3.43;;
27303;SDS011;14791;52.392;13.092;2022-11-06T01:11:55;3.83;;;3.57;;
27303;SDS011;14791;52.392;13.092;2022-11-06T01:14:25;4.10;;;3.80;;
27303;SDS011;14791;52.392;13.092;2022-11-06T01:16:55;3.90;;;3.70;;
27303;SDS011;14791;52.392;13.092;2022-11-06T01:19:24;3.43;;;3.13;;
27303;SDS011;14791;52.392;13.092;2022-11-06T01:21:53;2.80;;;2.70;;
27303;SDS011;14791;52.392;13.092;2022-11-06T01:24:23;3.00;;;2.80;;
27303;SDS011;14791;52.392;13.092;2022-11-06T01:26:53;3.00;;;2.80;;
27303;SDS011;14791;52.392;13.092;2022-11-06T01:29:23;4.33;;;3.93;;
27303;SDS011;14791;52.392;13.092;2022-11-06T01:31:52;3.50;;;3.07;;
27303;SDS011;14791;52.392;13.092;2022-11-06T01:34:21;3.10;;;2.90;;
27303;SDS011;14791;52.392;13.092;2022-11-06T01:36:50;3.63;;;3.33;;
27303;SDS011;14791;52.392;13.092;2022-11-06T01:39:19;3.57;;;3.33;;
27303;SDS011;14791;52.392;13.092;2022-11-06T01:41:49;2.97;;;2.87;;
27303;SDS011;14791;52.392;13.092;2022-11-06T01:47:22;3.00;;;2.80;;
27303;SDS011;14791;52.392;13.092;2022-11-06T01:50:08;3.43;;;3.23;;
27303;SDS011;14791;52.392;13.092;2022-11-06T01:52:39;2.60;;;2.50;;
27303;SDS011;14791;52.392;13.092;2022-11-06T01:55:14;3.30;;;3.10;;
27303;SDS011;14791;52.392;13.092;2022-11-06T01:57:45;2.90;;;2.70;;
27303;SDS011;14791;52.392;13.092;2022-11-06T02:00:15;2.93;;;2.73;;
27303;SDS011;14791;52.392;13.092;2022-11-06T02:02:46;3.27;;;3.07;;
27303;SDS011;14791;52.392;13.092;2022-11-06T02:05:15;3.43;;;3.23;;
27303;SDS011;14791;52.392;13.092;2022-11-06T02:07:44;3.03;;;2.93;;
27303;SDS011;14791;52.392;13.092;2022-11-06T02:10:14;3.10;;;3.00;;
27303;SDS011;14791;52.392;13.092;2022-11-06T02:12:46;3.60;;;3.10;;
27303;SDS011;14791;52.392;13.092;2022-11-06T02:15:21;3.77;;;3.47;;
27303;SDS011;14791;52.392;13.092;2022-11-06T02:18:01;4.57;;;3.30;;
27303;SDS011;14791;52.392;13.092;2022-11-06T02:23:28;2.20;;;2.10;;
27303;SDS011;14791;52.392;13.092;2022-11-06T02:26:28;3.57;;;3.37;;
27303;SDS011;14791;52.392;13.092;2022-11-06T02:29:14;3.80;;;3.00;;
27303;SDS011;14791;52.392;13.092;2022-11-06T02:31:51;2.87;;;2.77;;
27303;SDS011;14791;52.392;13.092;2022-11-06T02:34:23;3.33;;;3.13;;
27303;SDS011;14791;52.392;13.092;2022-11-06T02:37:00;2.90;;;2.70;;
27303;SDS011;14791;52.392;13.092;2022-11-06T02:39:26;3.63;;;3.43;;
27303;SDS011;14791;52.392;13.092;2022-11-06T02:41:58;3.67;;;3.30;;
27303;SDS011;14791;52.392;13.092;2022-11-06T02:44:28;4.00;;;3.70;;
27303;SDS011;14791;52.392;13.092;2022-11-06T02:47:00;3.93;;;3.63;;
27303;SDS011;14791;52.392;13.092;2022-11-06T02:49:35;3.50;;;3.20;;
27303;SDS011;14791;52.392;13.092;2022-11-06T02:52:11;3.70;;;3.40;;
27303;SDS011;14791;52.392;13.092;2022-11-06T02:54:43;3.73;;;3.53;;
27303;SDS011;14791;52.392;13.092;2022-11-06T02:57:13;3.23;;;3.03;;
27303;SDS011;14791;52.392;13.092;2022-11-06T02:59:49;3.17;;;3.07;;
27303;SDS011;14791;52.392;13.092;2022-11-06T03:02:21;3.37;;;3.07;;
27303;SDS011;14791;52.392;13.092;2022-11-06T03:04:54;2.80;;;2.70;;
27303;SDS011;14791;52.392;13.092;2022-11-06T03:07:26;3.07;;;2.87;;
27303;SDS011;14791;52.392;13.092;2022-11-06T03:09:56;2.70;;;2.60;;
27303;SDS011;14791;52.392;13.092;2022-11-06T03:14:59;3.20;;;3.00;;
27303;SDS011;14791;52.392;13.092;2022-11-06T03:17:50;3.17;;;2.93;;
27303;SDS011;14791;52.392;13.092;2022-11-06T03:23:17;4.10;;;3.80;;
27303;SDS011;14791;52.392;13.092;2022-11-06T03:25:51;2.83;;;2.73;;
27303;SDS011;14791;52.392;13.092;2022-11-06T03:28:32;3.20;;;3.00;;
27303;SDS011;14791;52.392;13.092;2022-11-06T03:31:08;2.87;;;2.70;;
27303;SDS011;14791;52.392;13.092;2022-11-06T03:33:36;3.20;;;3.00;;
27303;SDS011;14791;52.392;13.092;2022-11-06T03:36:18;3.33;;;3.03;;
27303;SDS011;14791;52.392;13.092;2022-11-06T03:38:49;3.70;;;3.50;;
27303;SDS011;14791;52.392;13.092;2022-11-06T03:44:12;3.03;;;2.83;;
27303;SDS011;14791;52.392;13.092;2022-11-06T03:46:44;3.30;;;3.10;;
27303;SDS011;14791;52.392;13.092;2022-11-06T03:49:20;3.33;;;3.13;;
27303;SDS011;14791;52.392;13.092;2022-11-06T03:51:51;3.20;;;3.10;;
27303;SDS011;14791;52.392;13.092;2022-11-06T03:55:12;3.53;;;3.27;;
27303;SDS011;14791;52.392;13.092;2022-11-06T03:57:08;3.47;;;3.27;;
27303;SDS011;14791;52.392;13.092;2022-11-06T03:59:45;3.27;;;3.10;;
27303;SDS011;14791;52.392;13.092;2022-11-06T04:02:12;3.27;;;3.03;;
27303;SDS011;14791;52.392;13.092;2022-11-06T04:04:50;3.30;;;3.10;;
27303;SDS011;14791;52.392;13.092;2022-11-06T04:07:21;4.23;;;3.90;;
27303;SDS011;14791;52.392;13.092;2022-11-06T04:09:59;2.97;;;2.87;;
27303;SDS011;14791;52.392;13.092;2022-11-06T04:12:50;3.47;;;3.30;;
27303;SDS011;14791;52.392;13.092;2022-11-06T04:15:34;3.60;;;3.50;;
27303;SDS011;14791;52.392;13.092;2022-11-06T04:18:27;3.03;;;2.87;;
27303;SDS011;14791;52.392;13.092;2022-11-06T04:20:48;3.10;;;3.00;;
27303;SDS011;14791;52.392;13.092;2022-11-06T04:24:35;3.43;;;3.23;;
27303;SDS011;14791;52.392;13.092;2022-11-06T04:26:51;2.60;;;2.50;;
27303;SDS011;14791;52.392;13.092;2022-11-06T04:29:28;3.10;;;2.90;;
27303;SDS011;14791;52.392;13.092;2022-11-06T04:32:04;3.13;;;2.93;;
27303;SDS011;14791;52.392;13.092;2022-11-06T04:34:41;3.33;;;3.13;;
27303;SDS011;14791;52.392;13.092;2022-11-06T04:37:20;4.40;;;4.20;;
27303;SDS011;14791;52.392;13.092;2022-11-06T04:40:10;3.53;;;3.27;;
27303;SDS011;14791;52.392;13.092;2022-11-06T04:43:00;3.20;;;3.00;;
27303;SDS011;14791;52.392;13.092;2022-11-06T04:45:31;2.77;;;2.67;;
27303;SDS011;14791;52.392;13.092;2022-11-06T04:48:05;3.03;;;2.83;;
27303;SDS011;14791;52.392;13.092;2022-11-06T04:50:38;2.63;;;2.53;;
27303;SDS011;14791;52.392;13.092;2022-11-06T04:53:08;3.30;;;3.10;;
27303;SDS011;14791;52.392;13.092;2022-11-06T04:55:44;3.30;;;3.00;;
27303;SDS011;14791;52.392;13.092;2022-11-06T04:58:18;3.13;;;2.93;;
27303;SDS011;14791;52.392;13.092;2022-11-06T05:00:48;3.17;;;3.00;;
27303;SDS011;14791;52.392;13.092;2022-11-06T05:03:17;2.93;;;2.83;;
27303;SDS011;14791;52.392;13.092;2022-11-06T05:05:46;3.87;;;3.67;;
27303;SDS011;14791;52.392;13.092;2022-11-06T05:08:16;3.70;;;3.50;;
27303;SDS011;14791;52.392;13.092;2022-11-06T05:10:47;3.43;;;3.13;;
27303;SDS011;14791;52.392;13.092;2022-11-06T05:13:15;2.83;;;2.73;;
27303;SDS011;14791;52.392;13.092;2022-11-06T05:15:44;3.00;;;2.90;;
27303;SDS011;14791;52.392;13.092;2022-11-06T05:18:13;2.73;;;2.63;;
27303;SDS011;14791;52.392;13.092;2022-11-06T05:20:42;2.80;;;2.70;;
27303;SDS011;14791;52.392;13.092;2022-11-06T05:23:11;3.90;;;3.37;;
27303;SDS011;14791;52.392;13.092;2022-11-06T05:25:40;3.10;;;3.00;;
27303;SDS011;14791;52.392;13.092;2022-11-06T05:28:09;3.40;;;3.20;;
27303;SDS011;14791;52.392;13.092;2022-11-06T05:30:38;2.90;;;2.70;;
27303;SDS011;14791;52.392;13.092;2022-11-06T05:33:07;3.17;;;3.07;;
27303;SDS011;14791;52.392;13.092;2022-11-06T05:35:36;3.07;;;2.87;;
27303;SDS011;14791;52.392;13.092;2022-11-06T05:38:05;3.77;;;3.57;;
27303;SDS011;14791;52.392;13.092;2022-11-06T05:40:34;3.10;;;3.00;;
27303;SDS011;14791;52.392;13.092;2022-11-06T05:43:03;3.97;;;3.77;;
27303;SDS011;14791;52.392;13.092;2022-11-06T05:45:31;3.70;;;3.50;;
27303;SDS011;14791;52.392;13.092;2022-11-06T05:48:00;3.20;;;3.00;;
27303;SDS011;14791;52.392;13.092;2022-11-06T05:50:29;2.77;;;2.67;;
27303;SDS011;14791;52.392;13.092;2022-11-06T05:53:00;2.97;;;2.87;;
27303;SDS011;14791;52.392;13.092;2022-11-06T05:55:29;3.10;;;3.00;;
27303;SDS011;14791;52.392;13.092;2022-11-06T05:57:58;3.57;;;3.47;;
27303;SDS011;14791;52.392;13.092;2022-11-06T06:00:27;2.70;;;2.60;;
27303;SDS011;14791;52.392;13.092;2022-11-06T06:02:55;3.60;;;3.40;;
27303;SDS011;14791;52.392;13.092;2022-11-06T06:05:24;3.20;;;3.10;;
27303;SDS011;14791;52.392;13.092;2022-11-06T06:07:53;3.80;;;3.50;;
27303;SDS011;14791;52.392;13.092;2022-11-06T06:10:22;3.10;;;3.00;;
27303;SDS011;14791;52.392;13.092;2022-11-06T06:12:51;3.40;;;3.20;;
27303;SDS011;14791;52.392;13.092;2022-11-06T06:15:20;3.33;;;3.20;;
27303;SDS011;14791;52.392;13.092;2022-11-06T06:17:49;3.10;;;3.00;;
27303;SDS011;14791;52.392;13.092;2022-11-06T06:20:17;3.63;;;3.53;;
27303;SDS011;14791;52.392;13.092;2022-11-06T06:22:53;2.97;;;2.87;;
27303;SDS011;14791;52.392;13.092;2022-11-06T06:25:23;3.40;;;3.30;;
27303;SDS011;14791;52.392;13.092;2022-11-06T06:27:52;2.70;;;2.60;;
27303;SDS011;14791;52.392;13.092;2022-11-06T06:30:22;2.97;;;2.87;;
27303;SDS011;14791;52.392;13.092;2022-11-06T06:32:51;3.13;;;2.93;;
27303;SDS011;14791;52.392;13.092;2022-11-06T06:35:20;2.97;;;2.87;;
27303;SDS011;14791;52.392;13.092;2022-11-06T06:37:50;3.33;;;3.20;;
27303;SDS011;14791;52.392;13.092;2022-11-06T06:40:20;3.70;;;3.50;;
27303;SDS011;14791;52.392;13.092;2022-11-06T06:42:49;3.47;;;3.27;;
27303;SDS011;14791;52.392;13.092;2022-11-06T06:45:19;3.23;;;3.03;;
27303;SDS011;14791;52.392;13.092;2022-11-06T06:47:48;4.40;;;4.20;;
27303;SDS011;14791;52.392;13.092;2022-11-06T06:50:16;4.27;;;4.03;;
27303;SDS011;14791;52.392;13.092;2022-11-06T06:52:45;3.00;;;2.90;;
27303;SDS011;14791;52.392;13.092;2022-11-06T06:55:15;4.00;;;3.70;;
27303;SDS011;14791;52.392;13.092;2022-11-06T06:57:44;3.80;;;3.70;;
27303;SDS011;14791;52.392;13.092;2022-11-06T07:00:13;3.37;;;3.27;;
27303;SDS011;14791;52.392;13.092;2022-11-06T07:02:42;3.27;;;3.07;;
27303;SDS011;14791;52.392;13.092;2022-11-06T07:05:11;3.50;;;3.40;;
27303;SDS011;14791;52.392;13.092;2022-11-06T07:07:39;3.70;;;3.60;;
27303;SDS011;14791;52.392;13.092;2022-11-06T07:10:08;4.07;;;3.87;;
27303;SDS011;14791;52.392;13.092;2022-11-06T07:12:37;3.67;;;3.40;;
27303;SDS011;14791;52.392;13.092;2022-11-06T07:15:06;4.00;;;3.80;;
27303;SDS011;14791;52.392;13.092;2022-11-06T07:17:36;4.47;;;4.17;;
27303;SDS011;14791;52.392;13.092;2022-11-06T07:20:06;3.43;;;3.23;;
27303;SDS011;14791;52.392;13.092;2022-11-06T07:22:35;3.67;;;3.47;;
27303;SDS011;14791;52.392;13.092;2022-11-06T07:25:05;3.83;;;3.63;;
27303;SDS011;14791;52.392;13.092;2022-11-06T07:27:34;3.60;;;3.50;;
27303;SDS011;14791;52.392;13.092;2022-11-06T07:30:03;3.80;;;3.50;;
27303;SDS011;14791;52.392;13.092;2022-11-06T07:32:32;3.90;;;3.70;;
27303;SDS011;14791;52.392;13.092;2022-11-06T07:35:01;3.60;;;3.40;;
27303;SDS011;14791;52.392;13.092;2022-11-06T07:37:31;4.47;;;4.27;;
27303;SDS011;14791;52.392;13.092;2022-11-06T07:39:59;4.27;;;4.07;;
27303;SDS011;14791;52.392;13.092;2022-11-06T07:42:28;4.20;;;3.93;;
27303;SDS011;14791;52.392;13.092;2022-11-06T07:44:59;3.80;;;3.43;;
27303;SDS011;14791;52.392;13.092;2022-11-06T07:47:31;3.33;;;3.13;;
27303;SDS011;14791;52.392;13.092;2022-11-06T07:49:59;3.40;;;3.30;;
27303;SDS011;14791;52.392;13.092;2022-11-06T07:52:28;5.20;;;3.50;;
27303;SDS011;14791;52.392;13.092;2022-11-06T07:54:58;3.93;;;3.63;;
27303;SDS011;14791;52.392;13.092;2022-11-06T07:57:27;4.17;;;3.87;;
27303;SDS011;14791;52.392;13.092;2022-11-06T07:59:56;4.10;;;3.90;;
27303;SDS011;14791;52.392;13.092;2022-11-06T08:02:25;4.30;;;4.10;;
27303;SDS011;14791;52.392;13.092;2022-11-06T08:04:53;4.23;;;3.93;;
27303;SDS011;14791;52.392;13.092;2022-11-06T08:07:22;3.90;;;3.70;;
27303;SDS011;14791;52.392;13.092;2022-11-06T08:09:51;4.80;;;4.40;;
27303;SDS011;14791;52.392;13.092;2022-11-06T08:12:20;4.30;;;4.00;;
27303;SDS011;14791;52.392;13.092;2022-11-06T08:14:49;3.83;;;3.63;;
27303;SDS011;14791;52.392;13.092;2022-11-06T08:17:18;3.93;;;3.80;;
27303;SDS011;14791;52.392;13.092;2022-11-06T08:19:47;3.90;;;3.60;;
27303;SDS011;14791;52.392;13.092;2022-11-06T08:22:15;3.93;;;3.73;;
27303;SDS011;14791;52.392;13.092;2022-11-06T08:24:45;3.57;;;3.37;;
27303;SDS011;14791;52.392;13.092;2022-11-06T08:27:13;4.20;;;4.00;;
27303;SDS011;14791;52.392;13.092;2022-11-06T08:29:42;3.60;;;3.50;;
27303;SDS011;14791;52.392;13.092;2022-11-06T08:32:11;3.60;;;3.50;;
27303;SDS011;14791;52.392;13.092;2022-11-06T08:34:40;4.43;;;4.23;;
27303;SDS011;14791;52.392;13.092;2022-11-06T08:37:09;4.40;;;4.10;;
27303;SDS011;14791;52.392;13.092;2022-11-06T08:39:38;3.13;;;3.03;;
27303;SDS011;14791;52.392;13.092;2022-11-06T08:42:07;4.27;;;4.07;;
27303;SDS011;14791;52.392;13.092;2022-11-06T08:44:36;4.23;;;4.03;;
27303;SDS011;14791;52.392;13.092;2022-11-06T08:47:05;4.40;;;4.10;;
27303;SDS011;14791;52.392;13.092;2022-11-06T08:49:34;4.17;;;3.97;;
27303;SDS011;14791;52.392;13.092;2022-11-06T08:52:02;3.90;;;3.60;;
27303;SDS011;14791;52.392;13.092;2022-11-06T08:54:31;4.23;;;3.90;;
27303;SDS011;14791;52.392;13.092;2022-11-06T08:57:00;4.27;;;4.07;;
27303;SDS011;14791;52.392;13.092;2022-11-06T08:59:30;4.47;;;4.27;;
27303;SDS011;14791;52.392;13.092;2022-11-06T09:01:59;4.57;;;4.37;;
27303;SDS011;14791;52.392;13.092;2022-11-06T09:04:28;4.50;;;4.20;;
27303;SDS011;14791;52.392;13.092;2022-11-06T09:06:57;4.23;;;4.03;;
27303;SDS011;14791;52.392;13.092;2022-11-06T09:09:26;3.70;;;3.60;;
27303;SDS011;14791;52.392;13.092;2022-11-06T09:11:57;3.77;;;3.57;;
27303;SDS011;14791;52.392;13.092;2022-11-06T09:14:26;4.10;;;3.73;;
27303;SDS011;14791;52.392;13.092;2022-11-06T09:16:55;3.97;;;3.77;;
27303;SDS011;14791;52.392;13.092;2022-11-06T09:19:25;4.27;;;3.87;;
27303;SDS011;14791;52.392;13.092;2022-11-06T09:21:54;3.93;;;3.73;;
27303;SDS011;14791;52.392;13.092;2022-11-06T09:24:23;3.67;;;3.47;;
27303;SDS011;14791;52.392;13.092;2022-11-06T09:26:52;3.67;;;3.33;;
27303;SDS011;14791;52.392;13.092;2022-11-06T09:29:21;3.83;;;3.63;;
27303;SDS011;14791;52.392;13.092;2022-11-06T09:31:50;3.53;;;3.43;;
27303;SDS011;14791;52.392;13.092;2022-11-06T09:34:20;3.60;;;3.50;;
27303;SDS011;14791;52.392;13.092;2022-11-06T09:36:49;3.40;;;3.30;;
27303;SDS011;14791;52.392;13.092;2022-11-06T09:39:18;3.60;;;3.50;;
27303;SDS011;14791;52.392;13.092;2022-11-06T09:41:57;3.47;;;3.17;;
27303;SDS011;14791;52.392;13.092;2022-11-06T09:45:15;3.00;;;2.90;;
27303;SDS011;14791;52.392;13.092;2022-11-06T09:47:19;3.13;;;3.03;;
27303;SDS011;14791;52.392;13.092;2022-11-06T09:49:49;3.17;;;3.00;;
27303;SDS011;14791;52.392;13.092;2022-11-06T09:52:35;3.30;;;3.10;;
27303;SDS011;14791;52.392;13.092;2022-11-06T09:55:08;3.10;;;3.00;;
27303;SDS011;14791;52.392;13.092;2022-11-06T10:00:15;3.13;;;2.97;;
27303;SDS011;14791;52.392;13.092;2022-11-06T10:02:48;3.33;;;3.13;;
27303;SDS011;14791;52.392;13.092;2022-11-06T10:05:23;3.37;;;3.27;;
27303;SDS011;14791;52.392;13.092;2022-11-06T10:08:05;3.40;;;3.20;;
27303;SDS011;14791;52.392;13.092;2022-11-06T10:19:10;3.80;;;3.50;;
27303;SDS011;14791;52.392;13.092;2022-11-06T10:24:46;2.93;;;2.83;;
27303;SDS011;14791;52.392;13.092;2022-11-06T10:27:15;3.20;;;3.00;;
27303;SDS011;14791;52.392;13.092;2022-11-06T10:30:04;2.90;;;2.80;;
27303;SDS011;14791;52.392;13.092;2022-11-06T10:32:55;2.93;;;2.77;;
27303;SDS011;14791;52.392;13.092;2022-11-06T10:35:30;3.00;;;2.90;;
27303;SDS011;14791;52.392;13.092;2022-11-06T10:40:47;2.70;;;2.60;;
27303;SDS011;14791;52.392;13.092;2022-11-06T10:43:25;3.30;;;3.20;;
27303;SDS011;14791;52.392;13.092;2022-11-06T10:46:03;2.93;;;2.73;;
27303;SDS011;14791;52.392;13.092;2022-11-06T10:48:41;2.80;;;2.70;;
27303;SDS011;14791;52.392;13.092;2022-11-06T10:51:18;2.60;;;2.50;;
27303;SDS011;14791;52.392;13.092;2022-11-06T10:56:38;2.70;;;2.57;;
27303;SDS011;14791;52.392;13.092;2022-11-06T10:59:09;3.07;;;2.83;;
27303;SDS011;14791;52.392;13.092;2022-11-06T11:01:37;2.90;;;2.80;;
27303;SDS011;14791;52.392;13.092;2022-11-06T11:04:06;2.70;;;2.60;;
27303;SDS011;14791;52.392;13.092;2022-11-06T11:06:42;2.50;;;2.40;;
27303;SDS011;14791;52.392;13.092;2022-11-06T11:09:26;2.73;;;2.63;;
27303;SDS011;14791;52.392;13.092;2022-11-06T11:11:57;2.33;;;2.23;;
27303;SDS011;14791;52.392;13.092;2022-11-06T11:14:28;2.50;;;2.40;;
27303;SDS011;14791;52.392;13.092;2022-11-06T11:16:59;2.40;;;2.20;;
27303;SDS011;14791;52.392;13.092;2022-11-06T11:19:33;2.57;;;2.40;;
27303;SDS011;14791;52.392;13.092;2022-11-06T11:22:07;2.50;;;2.40;;
27303;SDS011;14791;52.392;13.092;2022-11-06T11:25:01;2.43;;;2.17;;
27303;SDS011;14791;52.392;13.092;2022-11-06T11:27:35;2.37;;;2.27;;
27303;SDS011;14791;52.392;13.092;2022-11-06T11:30:04;2.77;;;2.40;;
27303;SDS011;14791;52.392;13.092;2022-11-06T11:32:35;2.77;;;2.67;;
27303;SDS011;14791;52.392;13.092;2022-11-06T11:35:06;2.87;;;2.77;;
27303;SDS011;14791;52.392;13.092;2022-11-06T11:37:36;2.60;;;2.50;;
27303;SDS011;14791;52.392;13.092;2022-11-06T11:40:19;2.60;;;2.50;;
27303;SDS011;14791;52.392;13.092;2022-11-06T11:42:49;2.40;;;2.30;;
27303;SDS011;14791;52.392;13.092;2022-11-06T11:45:18;2.83;;;2.43;;
27303;SDS011;14791;52.392;13.092;2022-11-06T11:47:49;2.40;;;2.30;;
27303;SDS011;14791;52.392;13.092;2022-11-06T11:50:31;2.60;;;2.50;;
27303;SDS011;14791;52.392;13.092;2022-11-06T11:53:10;2.60;;;2.50;;
27303;SDS011;14791;52.392;13.092;2022-11-06T11:55:48;2.67;;;2.33;;
27303;SDS011;14791;52.392;13.092;2022-11-06T11:58:22;2.53;;;2.43;;
27303;SDS011;14791;52.392;13.092;2022-11-06T12:01:00;2.67;;;2.57;;
27303;SDS011;14791;52.392;13.092;2022-11-06T12:03:35;2.33;;;2.23;;
27303;SDS011;14791;52.392;13.092;2022-11-06T12:06:09;2.50;;;2.40;;
27303;SDS011;14791;52.392;13.092;2022-11-06T12:08:44;2.30;;;2.20;;
27303;SDS011;14791;52.392;13.092;2022-11-06T12:11:22;2.17;;;2.07;;
27303;SDS011;14791;52.392;13.092;2022-11-06T12:16:59;2.33;;;2.27;;
27303;SDS011;14791;52.392;13.092;2022-11-06T12:19:30;2.40;;;2.20;;
27303;SDS011;14791;52.392;13.092;2022-11-06T12:22:03;2.17;;;2.17;;
27303;SDS011;14791;52.392;13.092;2022-11-06T12:24:41;2.30;;;2.20;;
27303;SDS011;14791;52.392;13.092;2022-11-06T12:27:31;3.47;;;2.30;;
27303;SDS011;14791;52.392;13.092;2022-11-06T12:30:02;1.90;;;1.90;;
27303;SDS011;14791;52.392;13.092;2022-11-06T12:33:25;2.43;;;2.27;;
27303;SDS011;14791;52.392;13.092;2022-11-06T12:38:14;2.33;;;2.22;;
27303;SDS011;14791;52.392;13.092;2022-11-06T12:43:44;2.37;;;2.15;;
27303;SDS011;14791;52.392;13.092;2022-11-06T12:46:18;2.12;;;2.08;;
27303;SDS011;14791;52.392;13.092;2022-11-06T12:54:41;2.27;;;2.17;;
27303;SDS011;14791;52.392;13.092;2022-11-06T12:57:17;2.02;;;1.95;;
27303;SDS011;14791;52.392;13.092;2022-11-06T13:06:04;2.22;;;2.10;;
27303;SDS011;14791;52.392;13.092;2022-11-06T13:17:04;1.87;;;1.77;;
27303;SDS011;14791;52.392;13.092;2022-11-06T13:22:27;1.55;;;1.45;;
27303;SDS011;14791;52.392;13.092;2022-11-06T13:25:16;1.60;;;1.60;;
27303;SDS011;14791;52.392;13.092;2022-11-06T13:30:21;2.30;;;2.20;;
27303;SDS011;14791;52.392;13.092;2022-11-06T13:35:41;1.57;;;1.57;;
27303;SDS011;14791;52.392;13.092;2022-11-06T13:38:16;1.82;;;1.72;;
27303;SDS011;14791;52.392;13.092;2022-11-06T13:40:57;1.67;;;1.67;;
27303;SDS011;14791;52.392;13.092;2022-11-06T13:43:29;1.60;;;1.60;;
27303;SDS011;14791;52.392;13.092;2022-11-06T13:46:18;1.90;;;1.80;;
27303;SDS011;14791;52.392;13.092;2022-11-06T13:49:05;1.95;;;1.80;;
27303;SDS011;14791;52.392;13.092;2022-11-06T13:51:54;1.70;;;1.70;;
27303;SDS011;14791;52.392;13.092;2022-11-06T13:57:20;2.10;;;1.80;;
27303;SDS011;14791;52.392;13.092;2022-11-06T14:00:11;1.65;;;1.57;;
27303;SDS011;14791;52.392;13.092;2022-11-06T14:05:42;1.80;;;1.70;;
27303;SDS011;14791;52.392;13.092;2022-11-06T14:08:27;1.50;;;1.40;;
27303;SDS011;14791;52.392;13.092;2022-11-06T14:11:11;1.67;;;1.65;;
27303;SDS011;14791;52.392;13.092;2022-11-06T14:13:58;2.90;;;2.58;;
27303;SDS011;14791;52.392;13.092;2022-11-06T14:16:31;5.72;;;5.22;;
27303;SDS011;14791;52.392;13.092;2022-11-06T14:19:09;3.47;;;3.37;;
27303;SDS011;14791;52.392;13.092;2022-11-06T14:24:45;2.20;;;2.10;;
27303;SDS011;14791;52.392;13.092;2022-11-06T14:27:12;1.70;;;1.60;;
27303;SDS011;14791;52.392;13.092;2022-11-06T14:40:57;1.65;;;1.55;;
27303;SDS011;14791;52.392;13.092;2022-11-06T14:43:27;1.32;;;1.32;;
27303;SDS011;14791;52.392;13.092;2022-11-06T14:45:59;1.62;;;1.52;;
27303;SDS011;14791;52.392;13.092;2022-11-06T14:48:38;1.40;;;1.30;;
27303;SDS011;14791;52.392;13.092;2022-11-06T14:51:05;1.98;;;1.87;;
27303;SDS011;14791;52.392;13.092;2022-11-06T14:53:37;2.08;;;1.98;;
27303;SDS011;14791;52.392;13.092;2022-11-06T14:56:08;1.77;;;1.67;;
27303;SDS011;14791;52.392;13.092;2022-11-06T14:58:39;1.93;;;1.87;;
27303;SDS011;14791;52.392;13.092;2022-11-06T15:01:14;2.50;;;2.40;;
27303;SDS011;14791;52.392;13.092;2022-11-06T15:03:52;1.60;;;1.60;;
27303;SDS011;14791;52.392;13.092;2022-11-06T15:09:12;2.07;;;1.97;;
27303;SDS011;14791;52.392;13.092;2022-11-06T15:11:50;2.67;;;2.57;;
27303;SDS011;14791;52.392;13.092;2022-11-06T15:17:01;2.20;;;2.10;;
27303;SDS011;14791;52.392;13.092;2022-11-06T15:19:38;2.40;;;2.30;;
27303;SDS011;14791;52.392;13.092;2022-11-06T15:22:30;2.37;;;2.27;;
27303;SDS011;14791;52.392;13.092;2022-11-06T15:25:21;2.50;;;2.40;;
27303;SDS011;14791;52.392;13.092;2022-11-06T15:28:12;2.98;;;2.52;;
27303;SDS011;14791;52.392;13.092;2022-11-06T15:30:47;2.57;;;2.47;;
27303;SDS011;14791;52.392;13.092;2022-11-06T15:33:25;2.83;;;2.50;;
27303;SDS011;14791;52.392;13.092;2022-11-06T15:35:54;3.33;;;2.90;;
27303;SDS011;14791;52.392;13.092;2022-11-06T15:38:25;2.87;;;2.73;;
27303;SDS011;14791;52.392;13.092;2022-11-06T15:40:56;4.10;;;3.70;;
27303;SDS011;14791;52.392;13.092;2022-11-06T15:43:29;3.73;;;3.50;;
27303;SDS011;14791;52.392;13.092;2022-11-06T15:46:06;2.87;;;2.77;;
27303;SDS011;14791;52.392;13.092;2022-11-06T15:48:36;2.20;;;2.10;;
27303;SDS011;14791;52.392;13.092;2022-11-06T15:53:55;1.90;;;1.80;;
27303;SDS011;14791;52.392;13.092;2022-11-06T15:56:25;2.30;;;2.20;;
27303;SDS011;14791;52.392;13.092;2022-11-06T15:59:05;1.83;;;1.83;;
27303;SDS011;14791;52.392;13.092;2022-11-06T16:01:39;2.00;;;1.90;;
27303;SDS011;14791;52.392;13.092;2022-11-06T16:04:10;2.27;;;2.17;;
27303;SDS011;14791;52.392;13.092;2022-11-06T16:06:42;2.10;;;2.10;;
27303;SDS011;14791;52.392;13.092;2022-11-06T16:09:20;2.30;;;2.20;;
27303;SDS011;14791;52.392;13.092;2022-11-06T16:11:52;2.63;;;2.43;;
27303;SDS011;14791;52.392;13.092;2022-11-06T16:14:23;2.80;;;2.70;;
27303;SDS011;14791;52.392;13.092;2022-11-06T16:16:53;2.13;;;2.03;;
27303;SDS011;14791;52.392;13.092;2022-11-06T16:19:30;2.50;;;2.40;;
27303;SDS011;14791;52.392;13.092;2022-11-06T16:22:02;4.40;;;4.20;;
27303;SDS011;14791;52.392;13.092;2022-11-06T16:24:38;3.00;;;2.80;;
27303;SDS011;14791;52.392;13.092;2022-11-06T16:27:17;2.90;;;2.80;;
27303;SDS011;14791;52.392;13.092;2022-11-06T16:29:52;2.40;;;2.30;;
27303;SDS011;14791;52.392;13.092;2022-11-06T16:32:24;2.80;;;2.60;;
27303;SDS011;14791;52.392;13.092;2022-11-06T16:34:55;2.67;;;2.47;;
27303;SDS011;14791;52.392;13.092;2022-11-06T16:43:20;2.77;;;2.57;;
27303;SDS011;14791;52.392;13.092;2022-11-06T16:45:51;3.27;;;3.07;;
27303;SDS011;14791;52.392;13.092;2022-11-06T16:48:26;3.73;;;3.53;;
27303;SDS011;14791;52.392;13.092;2022-11-06T16:50:59;3.50;;;3.30;;
27303;SDS011;14791;52.392;13.092;2022-11-06T16:53:46;2.87;;;2.77;;